createdAt,value
2017-07-01T00:01:00.359Z,14.48
2017-07-01T00:02:10.861Z,14.55
2017-07-01T00:03:21.537Z,14.56
2017-07-01T00:04:31.495Z,14.52
2017-07-01T00:05:41.773Z,14.51
2017-07-01T00:06:52.049Z,14.52
2017-07-01T00:08:01.995Z,14.58
2017-07-01T00:09:11.898Z,14.61
2017-07-01T00:10:22.159Z,14.59
2017-07-01T00:11:32.418Z,14.59
2017-07-01T00:12:42.662Z,14.52
2017-07-01T00:13:52.920Z,14.58
2017-07-01T00:15:03.444Z,14.62
2017-07-01T00:16:13.706Z,14.52
2017-07-01T00:17:23.661Z,14.55
2017-07-01T00:18:33.922Z,14.49
2017-07-01T00:19:44.175Z,14.49
2017-07-01T00:20:54.694Z,14.56
2017-07-01T00:22:04.645Z,14.52
2017-07-01T00:23:14.922Z,14.53
2017-07-01T00:24:25.188Z,14.48
2017-07-01T00:25:35.452Z,14.43
2017-07-01T00:26:45.954Z,14.38
2017-07-01T00:27:56.217Z,14.25
2017-07-01T00:29:06.484Z,14.26
2017-07-01T00:30:16.741Z,14.26
2017-07-01T00:31:27.094Z,14.26
2017-07-01T00:32:37.605Z,14.16
2017-07-01T00:33:47.553Z,14.15
2017-07-01T00:34:57.809Z,14.13
2017-07-01T00:36:08.067Z,14.15
2017-07-01T00:37:18.333Z,14.12
2017-07-01T00:38:28.848Z,14.13
2017-07-01T00:39:39.100Z,14.04
2017-07-01T00:40:49.362Z,14.12
2017-07-01T00:41:59.637Z,14.08
2017-07-01T00:43:09.876Z,14.08
2017-07-01T00:44:20.395Z,14.05
2017-07-01T00:45:30.345Z,14.05
2017-07-01T00:46:40.608Z,14.08
2017-07-01T00:47:50.556Z,14.05
2017-07-01T00:49:00.806Z,14.03
2017-07-01T00:50:11.341Z,14.04
2017-07-01T00:51:21.332Z,14.04
2017-07-01T00:52:31.599Z,13.98
2017-07-01T00:53:42.007Z,14.01
2017-07-01T00:54:51.964Z,14
2017-07-01T00:56:02.168Z,14.03
2017-07-01T00:57:12.419Z,14.08
2017-07-01T00:58:22.376Z,14.07
2017-07-01T00:59:32.647Z,13.97
2017-07-01T01:00:42.596Z,14.01
2017-07-01T01:01:53.100Z,14.08
2017-07-01T01:03:03.359Z,14.04
2017-07-01T01:04:13.320Z,14.03
2017-07-01T01:05:23.571Z,14.05
2017-07-01T01:06:33.515Z,14.16
2017-07-01T01:07:43.817Z,14.11
2017-07-01T01:08:53.751Z,14.13
2017-07-01T01:10:03.422Z,14.07
2017-07-01T01:11:13.373Z,14.12
2017-07-01T01:12:23.013Z,14.07
2017-07-01T01:13:33.543Z,14.12
2017-07-01T01:14:43.809Z,14.04
2017-07-01T01:15:54.079Z,14.05
2017-07-01T01:17:04.346Z,14.05
2017-07-01T01:18:13.989Z,14.01
2017-07-01T01:19:24.200Z,13.97
2017-07-01T01:20:34.454Z,14.05
2017-07-01T01:21:44.710Z,13.97
2017-07-01T01:22:54.655Z,14.08
2017-07-01T01:24:04.918Z,13.97
2017-07-01T01:25:15.422Z,14
2017-07-01T01:26:25.370Z,13.94
2017-07-01T01:27:35.624Z,14
2017-07-01T01:28:45.872Z,13.98
2017-07-01T01:29:56.146Z,13.95
2017-07-01T01:31:06.335Z,13.94
2017-07-01T01:32:16.601Z,13.95
2017-07-01T01:33:26.242Z,13.87
2017-07-01T01:34:36.504Z,13.95
2017-07-01T01:35:46.749Z,14.05
2017-07-01T01:36:56.633Z,14.08
2017-07-01T01:38:06.585Z,14.12
2017-07-01T01:39:16.850Z,14.15
2017-07-01T01:40:27.127Z,14.15
2017-07-01T01:41:37.377Z,14.19
2017-07-01T01:42:47.605Z,14.12
2017-07-01T01:43:57.863Z,14.18
2017-07-01T01:45:07.817Z,14.15
2017-07-01T01:46:18.080Z,14.16
2017-07-01T01:47:28.363Z,14.25
2017-07-01T01:48:38.576Z,14.3
2017-07-01T01:49:48.525Z,14.26
2017-07-01T01:50:58.771Z,14.23
2017-07-01T01:52:08.732Z,14.23
2017-07-01T01:53:18.368Z,14.22
2017-07-01T01:54:28.637Z,14.31
2017-07-01T01:55:38.894Z,14.3
2017-07-01T01:56:48.526Z,14.28
2017-07-01T01:57:58.782Z,14.34
2017-07-01T01:59:08.731Z,14.22
2017-07-01T02:00:19.253Z,14.25
2017-07-01T02:01:29.534Z,14.36
2017-07-01T02:02:39.791Z,14.33
2017-07-01T02:03:50.040Z,14.33
2017-07-01T02:05:00.298Z,14.33
2017-07-01T02:06:10.856Z,14.44
2017-07-01T02:07:21.119Z,14.41
2017-07-01T02:08:30.772Z,14.38
2017-07-01T02:09:41.024Z,14.43
2017-07-01T02:10:51.329Z,14.45
2017-07-01T02:12:01.528Z,14.43
2017-07-01T02:13:11.178Z,14.56
2017-07-01T02:14:21.442Z,14.45
2017-07-01T02:15:31.386Z,14.52
2017-07-01T02:16:41.332Z,14.53
2017-07-01T02:17:51.537Z,14.59
2017-07-01T02:19:01.489Z,14.53
2017-07-01T02:20:11.742Z,14.58
2017-07-01T02:21:22.008Z,14.45
2017-07-01T02:22:31.957Z,14.48
2017-07-01T02:23:42.469Z,14.45
2017-07-01T02:24:52.425Z,14.43
2017-07-01T02:26:02.708Z,14.51
2017-07-01T02:27:12.671Z,14.48
2017-07-01T02:28:22.617Z,14.45
2017-07-01T02:29:33.143Z,14.51
2017-07-01T02:30:43.096Z,14.52
2017-07-01T02:31:53.346Z,14.44
2017-07-01T02:33:03.309Z,14.49
2017-07-01T02:34:13.565Z,14.49
2017-07-01T02:35:23.752Z,14.45
2017-07-01T02:36:34.030Z,14.51
2017-07-01T02:37:44.298Z,14.55
2017-07-01T02:38:54.553Z,14.59
2017-07-01T02:40:04.804Z,14.55
2017-07-01T02:41:15.323Z,14.52
2017-07-01T02:42:25.594Z,14.58
2017-07-01T02:43:35.858Z,14.58
2017-07-01T02:44:45.811Z,14.52
2017-07-01T02:45:56.061Z,14.66
2017-07-01T02:47:06.577Z,14.67
2017-07-01T02:48:16.527Z,14.62
2017-07-01T02:49:26.785Z,14.58
2017-07-01T02:50:37.052Z,14.61
2017-07-01T02:51:46.998Z,14.62
2017-07-01T02:52:57.193Z,14.67
2017-07-01T02:54:07.452Z,14.61
2017-07-01T02:55:17.702Z,14.62
2017-07-01T02:56:27.339Z,14.63
2017-07-01T02:57:37.593Z,14.62
2017-07-01T02:58:48.108Z,14.61
2017-07-01T02:59:58.373Z,14.53
2017-07-01T03:01:08.643Z,14.59
2017-07-01T03:02:18.894Z,14.63
2017-07-01T03:03:29.162Z,14.66
2017-07-01T03:04:39.345Z,14.59
2017-07-01T03:05:49.300Z,14.62
2017-07-01T03:06:59.605Z,14.59
2017-07-01T03:08:09.868Z,14.63
2017-07-01T03:09:20.139Z,14.63
2017-07-01T03:10:30.336Z,14.66
2017-07-01T03:11:40.590Z,14.63
2017-07-01T03:12:50.854Z,14.67
2017-07-01T03:14:01.108Z,14.68
2017-07-01T03:15:11.374Z,14.77
2017-07-01T03:16:21.890Z,14.77
2017-07-01T03:17:31.834Z,14.77
2017-07-01T03:18:42.105Z,14.79
2017-07-01T03:19:51.744Z,14.79
2017-07-01T03:21:01.698Z,14.74
2017-07-01T03:22:11.928Z,14.77
2017-07-01T03:23:21.882Z,14.78
2017-07-01T03:24:31.820Z,14.71
2017-07-01T03:25:42.059Z,14.71
2017-07-01T03:26:52.320Z,14.67
2017-07-01T03:28:02.514Z,14.79
2017-07-01T03:29:12.768Z,14.63
2017-07-01T03:30:23.036Z,14.74
2017-07-01T03:31:33.293Z,14.62
2017-07-01T03:32:43.550Z,14.67
2017-07-01T03:33:54.066Z,14.63
2017-07-01T03:35:04.016Z,14.61
2017-07-01T03:36:13.967Z,14.7
2017-07-01T03:37:23.921Z,14.63
2017-07-01T03:38:34.183Z,14.61
2017-07-01T03:39:44.693Z,14.67
2017-07-01T03:40:54.943Z,14.71
2017-07-01T03:42:04.899Z,14.67
2017-07-01T03:43:15.152Z,14.7
2017-07-01T03:44:25.098Z,14.59
2017-07-01T03:45:35.297Z,14.63
2017-07-01T03:46:45.253Z,14.63
2017-07-01T03:47:55.198Z,14.61
2017-07-01T03:49:05.440Z,14.59
2017-07-01T03:50:15.391Z,14.62
2017-07-01T03:51:25.905Z,14.59
2017-07-01T03:52:35.225Z,14.51
2017-07-01T03:53:45.476Z,14.52
2017-07-01T03:54:55.746Z,14.63
2017-07-01T03:56:05.700Z,14.49
2017-07-01T03:57:16.200Z,14.59
2017-07-01T03:58:26.468Z,14.51
2017-07-01T03:59:36.728Z,14.59
2017-07-01T04:00:46.677Z,14.62
2017-07-01T04:01:56.646Z,14.62
2017-07-01T04:03:07.172Z,14.63
2017-07-01T04:04:17.409Z,14.67
2017-07-01T04:05:27.673Z,14.61
2017-07-01T04:06:37.927Z,14.73
2017-07-01T04:07:48.183Z,14.68
2017-07-01T04:08:58.679Z,14.67
2017-07-01T04:10:08.616Z,14.73
2017-07-01T04:11:18.886Z,14.74
2017-07-01T04:12:28.858Z,14.71
2017-07-01T04:13:39.106Z,14.74
2017-07-01T04:14:49.316Z,14.77
2017-07-01T04:15:59.276Z,14.74
2017-07-01T04:17:09.224Z,14.78
2017-07-01T04:18:19.487Z,14.82
2017-07-01T04:19:29.763Z,14.73
2017-07-01T04:20:40.276Z,14.74
2017-07-01T04:21:49.908Z,14.74
2017-07-01T04:23:00.172Z,14.78
2017-07-01T04:24:10.124Z,14.87
2017-07-01T04:25:20.117Z,14.87
2017-07-01T04:26:30.627Z,14.89
2017-07-01T04:27:40.887Z,14.85
2017-07-01T04:28:51.143Z,14.89
2017-07-01T04:30:01.398Z,14.86
2017-07-01T04:31:11.658Z,14.85
2017-07-01T04:32:21.910Z,14.9
2017-07-01T04:33:32.178Z,14.85
2017-07-01T04:34:42.436Z,14.92
2017-07-01T04:35:52.693Z,14.87
2017-07-01T04:37:02.945Z,14.89
2017-07-01T04:38:13.448Z,14.87
2017-07-01T04:39:23.696Z,14.85
2017-07-01T04:40:33.021Z,14.81
2017-07-01T04:41:42.969Z,14.79
2017-07-01T04:42:52.937Z,14.86
2017-07-01T04:44:03.143Z,14.82
2017-07-01T04:45:13.407Z,14.82
2017-07-01T04:46:23.670Z,14.86
2017-07-01T04:47:33.627Z,14.82
2017-07-01T04:48:43.574Z,14.86
2017-07-01T04:49:54.074Z,14.87
2017-07-01T04:51:04.101Z,14.93
2017-07-01T04:52:14.394Z,14.92
2017-07-01T04:53:24.434Z,14.9
2017-07-01T04:54:34.703Z,14.97
2017-07-01T04:55:45.211Z,14.94
2017-07-01T04:56:54.865Z,14.99
2017-07-01T04:58:04.821Z,15.04
2017-07-01T04:59:15.100Z,14.92
2017-07-01T05:00:25.373Z,15.02
2017-07-01T05:01:35.882Z,15.04
2017-07-01T05:02:46.144Z,15
2017-07-01T05:03:56.405Z,14.94
2017-07-01T05:05:06.694Z,15.04
2017-07-01T05:06:16.952Z,15.05
2017-07-01T05:07:27.509Z,15.05
2017-07-01T05:08:37.445Z,15.04
2017-07-01T05:09:47.693Z,15.02
2017-07-01T05:10:57.971Z,15.04
2017-07-01T05:12:08.219Z,15.08
2017-07-01T05:13:18.418Z,15.1
2017-07-01T05:14:28.367Z,15.18
2017-07-01T05:15:38.643Z,15.11
2017-07-01T05:16:48.919Z,15.1
2017-07-01T05:17:59.181Z,15.11
2017-07-01T05:19:09.703Z,15.15
2017-07-01T05:20:19.973Z,15.22
2017-07-01T05:21:29.929Z,15.23
2017-07-01T05:22:40.194Z,15.33
2017-07-01T05:23:50.134Z,15.27
2017-07-01T05:25:00.644Z,15.32
2017-07-01T05:26:10.899Z,15.39
2017-07-01T05:27:20.839Z,15.39
2017-07-01T05:28:30.787Z,15.3
2017-07-01T05:29:40.740Z,15.39
2017-07-01T05:30:50.684Z,15.39
2017-07-01T05:32:00.938Z,15.45
2017-07-01T05:33:11.211Z,15.41
2017-07-01T05:34:21.468Z,15.51
2017-07-01T05:35:31.733Z,15.48
2017-07-01T05:36:42.242Z,15.43
2017-07-01T05:37:52.494Z,15.47
2017-07-01T05:39:02.744Z,15.5
2017-07-01T05:40:12.727Z,15.51
2017-07-01T05:41:22.670Z,15.59
2017-07-01T05:42:32.550Z,15.59
2017-07-01T05:43:42.805Z,15.51
2017-07-01T05:44:53.099Z,15.57
2017-07-01T05:46:03.043Z,15.57
2017-07-01T05:47:13.325Z,15.66
2017-07-01T05:48:23.825Z,15.65
2017-07-01T05:49:34.080Z,15.63
2017-07-01T05:50:44.345Z,15.63
2017-07-01T05:51:54.590Z,15.57
2017-07-01T05:53:04.542Z,15.65
2017-07-01T05:54:15.062Z,15.62
2017-07-01T05:55:25.326Z,15.67
2017-07-01T05:56:35.260Z,15.59
2017-07-01T05:57:45.516Z,15.55
2017-07-01T05:58:55.478Z,15.51
2017-07-01T06:00:05.686Z,15.51
2017-07-01T06:01:15.652Z,15.47
2017-07-01T06:02:25.944Z,15.51
2017-07-01T06:03:35.895Z,15.52
2017-07-01T06:04:46.149Z,15.47
2017-07-01T06:05:56.654Z,15.44
2017-07-01T06:07:06.924Z,15.5
2017-07-01T06:08:16.877Z,15.54
2017-07-01T06:09:26.825Z,15.54
2017-07-01T06:10:36.791Z,15.54
2017-07-01T06:11:47.002Z,15.63
2017-07-01T06:12:57.269Z,15.62
2017-07-01T06:14:07.529Z,15.7
2017-07-01T06:15:17.780Z,15.81
2017-07-01T06:16:27.735Z,15.76
2017-07-01T06:17:38.249Z,15.76
2017-07-01T06:18:48.512Z,15.75
2017-07-01T06:19:58.782Z,15.81
2017-07-01T06:21:08.746Z,15.85
2017-07-01T06:22:18.394Z,15.91
2017-07-01T06:23:28.948Z,15.84
2017-07-01T06:24:38.904Z,15.85
2017-07-01T06:25:48.866Z,15.75
2017-07-01T06:26:59.123Z,15.76
2017-07-01T06:28:09.386Z,15.72
2017-07-01T06:29:19.902Z,15.76
2017-07-01T06:30:29.853Z,15.81
2017-07-01T06:31:39.785Z,15.75
2017-07-01T06:32:49.746Z,15.75
2017-07-01T06:34:00.001Z,15.76
2017-07-01T06:35:10.535Z,15.85
2017-07-01T06:36:20.839Z,15.83
2017-07-01T06:37:30.798Z,15.85
2017-07-01T06:38:41.052Z,15.85
2017-07-01T06:39:50.999Z,15.92
2017-07-01T06:41:01.521Z,15.98
2017-07-01T06:42:11.480Z,16.03
2017-07-01T06:43:21.747Z,16.02
2017-07-01T06:44:31.697Z,16.05
2017-07-01T06:45:41.643Z,16.02
2017-07-01T06:46:52.207Z,16
2017-07-01T06:48:02.463Z,15.98
2017-07-01T06:49:12.754Z,16.02
2017-07-01T06:50:23.032Z,16
2017-07-01T06:51:33.305Z,16.05
2017-07-01T06:52:43.239Z,16.09
2017-07-01T06:53:53.498Z,16.12
2017-07-01T06:55:03.481Z,16.18
2017-07-01T06:56:13.777Z,16.25
2017-07-01T06:57:24.021Z,16.26
2017-07-01T06:58:34.229Z,16.25
2017-07-01T06:59:44.181Z,16.4
2017-07-01T07:00:54.120Z,16.34
2017-07-01T07:02:04.090Z,16.41
2017-07-01T07:03:14.356Z,16.46
2017-07-01T07:04:24.888Z,16.51
2017-07-01T07:05:34.839Z,16.4
2017-07-01T07:06:45.119Z,16.57
2017-07-01T07:07:55.388Z,16.5
2017-07-01T07:09:05.650Z,16.72
2017-07-01T07:10:16.187Z,16.8
2017-07-01T07:11:26.129Z,16.87
2017-07-01T07:12:36.077Z,16.97
2017-07-01T07:13:45.412Z,16.99
2017-07-01T07:14:55.365Z,17.07
2017-07-01T07:16:05.880Z,17.02
2017-07-01T07:17:15.836Z,17.12
2017-07-01T07:18:25.841Z,17.07
2017-07-01T07:19:36.096Z,17.02
2017-07-01T07:20:46.361Z,17.12
2017-07-01T07:21:56.561Z,17.14
2017-07-01T07:23:06.832Z,17.14
2017-07-01T07:24:16.779Z,17.02
2017-07-01T07:25:26.728Z,16.99
2017-07-01T07:26:37.004Z,16.98
2017-07-01T07:27:47.521Z,16.98
2017-07-01T07:28:57.476Z,16.92
2017-07-01T07:30:07.737Z,16.92
2017-07-01T07:31:17.989Z,16.97
2017-07-01T07:32:27.958Z,16.92
2017-07-01T07:33:38.481Z,16.97
2017-07-01T07:34:48.734Z,17.1
2017-07-01T07:35:59.032Z,17.12
2017-07-01T07:37:09.287Z,17.19
2017-07-01T07:38:19.234Z,17.24
2017-07-01T07:39:29.744Z,17.34
2017-07-01T07:40:40.019Z,17.38
2017-07-01T07:41:50.305Z,17.41
2017-07-01T07:43:00.578Z,17.49
2017-07-01T07:44:10.851Z,17.44
2017-07-01T07:45:21.383Z,17.47
2017-07-01T07:46:31.664Z,17.46
2017-07-01T07:47:41.615Z,17.46
2017-07-01T07:48:51.787Z,17.57
2017-07-01T07:50:01.761Z,17.49
2017-07-01T07:51:12.328Z,17.66
2017-07-01T07:52:21.980Z,17.65
2017-07-01T07:53:32.256Z,17.68
2017-07-01T07:54:42.515Z,17.65
2017-07-01T07:55:52.789Z,17.66
2017-07-01T07:57:03.297Z,17.71
2017-07-01T07:58:13.602Z,17.68
2017-07-01T07:59:23.551Z,17.63
2017-07-01T08:00:33.802Z,17.72
2017-07-01T08:01:44.055Z,17.68
2017-07-01T08:02:54.621Z,17.63
2017-07-01T08:04:04.903Z,17.66
2017-07-01T08:05:14.880Z,17.72
2017-07-01T08:06:25.132Z,17.68
2017-07-01T08:07:35.087Z,17.8
2017-07-01T08:08:44.989Z,17.87
2017-07-01T08:09:54.638Z,17.93
2017-07-01T08:11:04.904Z,17.93
2017-07-01T08:12:14.867Z,17.79
2017-07-01T08:13:25.128Z,17.82
2017-07-01T08:14:35.082Z,17.84
2017-07-01T08:15:45.344Z,17.84
2017-07-01T08:16:55.613Z,17.87
2017-07-01T08:18:05.890Z,17.84
2017-07-01T08:19:15.841Z,17.9
2017-07-01T08:20:26.061Z,17.87
2017-07-01T08:21:36.337Z,17.84
2017-07-01T08:22:46.608Z,17.87
2017-07-01T08:23:56.557Z,17.94
2017-07-01T08:25:06.195Z,17.91
2017-07-01T08:26:16.722Z,17.84
2017-07-01T08:27:26.680Z,17.86
2017-07-01T08:28:36.337Z,17.79
2017-07-01T08:29:46.623Z,17.87
2017-07-01T08:30:56.890Z,17.93
2017-07-01T08:32:07.467Z,17.91
2017-07-01T08:33:17.732Z,17.93
2017-07-01T08:34:27.994Z,17.93
2017-07-01T08:35:38.296Z,17.94
2017-07-01T08:36:48.248Z,18.03
2017-07-01T08:37:58.833Z,17.91
2017-07-01T08:39:08.833Z,18.02
2017-07-01T08:40:18.790Z,18.18
2017-07-01T08:41:29.055Z,18.26
2017-07-01T08:42:39.325Z,18.19
2017-07-01T08:43:49.927Z,18.23
2017-07-01T08:44:59.877Z,18.31
2017-07-01T08:46:09.513Z,18.48
2017-07-01T08:47:19.778Z,18.41
2017-07-01T08:48:29.419Z,18.34
2017-07-01T08:49:39.981Z,18.39
2017-07-01T08:50:49.625Z,18.41
2017-07-01T08:51:59.889Z,18.6
2017-07-01T08:53:10.158Z,18.58
2017-07-01T08:54:20.111Z,18.71
2017-07-01T08:55:30.311Z,18.76
2017-07-01T08:56:40.287Z,18.64
2017-07-01T08:57:50.243Z,18.63
2017-07-01T08:59:00.196Z,18.58
2017-07-01T09:00:10.487Z,18.55
2017-07-01T09:01:20.998Z,18.58
2017-07-01T09:02:31.274Z,18.48
2017-07-01T09:03:41.232Z,18.37
2017-07-01T09:04:51.505Z,18.49
2017-07-01T09:06:01.783Z,18.57
2017-07-01T09:07:12.291Z,18.7
2017-07-01T09:08:22.563Z,18.73
2017-07-01T09:09:32.565Z,18.89
2017-07-01T09:10:42.848Z,18.98
2017-07-01T09:11:53.110Z,18.92
2017-07-01T09:13:03.642Z,18.98
2017-07-01T09:14:13.918Z,19.05
2017-07-01T09:15:23.860Z,19.19
2017-07-01T09:16:33.825Z,19.05
2017-07-01T09:17:44.095Z,19.04
2017-07-01T09:18:54.615Z,19.19
2017-07-01T09:20:04.585Z,19.23
2017-07-01T09:21:14.839Z,19.29
2017-07-01T09:22:25.114Z,19.35
2017-07-01T09:23:35.396Z,19.48
2017-07-01T09:24:45.950Z,19.53
2017-07-01T09:25:56.215Z,19.56
2017-07-01T09:27:06.490Z,19.63
2017-07-01T09:28:16.453Z,19.49
2017-07-01T09:29:26.749Z,19.62
2017-07-01T09:30:36.961Z,19.57
2017-07-01T09:31:47.226Z,19.56
2017-07-01T09:32:57.508Z,19.7
2017-07-01T09:34:07.449Z,19.67
2017-07-01T09:35:17.413Z,19.79
2017-07-01T09:36:27.923Z,19.59
2017-07-01T09:37:37.876Z,19.7
2017-07-01T09:38:48.152Z,19.62
2017-07-01T09:39:58.412Z,19.57
2017-07-01T09:41:08.657Z,19.44
2017-07-01T09:42:19.183Z,19.35
2017-07-01T09:43:29.481Z,19.32
2017-07-01T09:44:39.449Z,19.35
2017-07-01T09:45:49.104Z,19.3
2017-07-01T09:46:59.385Z,19.3
2017-07-01T09:48:09.582Z,19.44
2017-07-01T09:49:19.544Z,19.49
2017-07-01T09:50:29.800Z,19.39
2017-07-01T09:51:40.073Z,19.56
2017-07-01T09:52:50.332Z,19.6
2017-07-01T09:54:00.861Z,19.62
2017-07-01T09:55:10.503Z,19.49
2017-07-01T09:56:20.772Z,19.42
2017-07-01T09:57:31.032Z,19.39
2017-07-01T09:58:40.985Z,19.29
2017-07-01T09:59:51.508Z,19.22
2017-07-01T10:01:01.781Z,19.26
2017-07-01T10:02:11.742Z,19.19
2017-07-01T10:03:22.026Z,19.17
2017-07-01T10:04:32.332Z,19.11
2017-07-01T10:05:42.533Z,19.15
2017-07-01T10:06:52.803Z,18.97
2017-07-01T10:08:03.052Z,19
2017-07-01T10:09:13.036Z,18.85
2017-07-01T10:10:23.291Z,18.91
2017-07-01T10:11:33.504Z,18.89
